Time;durP1;ratioP1;P1;durP2;ratioP2;P2;SDS_P1;SDS_P2;PMS_P1;PMS_P2;Temp;Humidity;BMP_temperature;BMP_pressure;BME280_temperature;BME280_humidity;BME280_pressure;Samples;Min_cycle;Max_cycle;Signal;HPM_P1;HPM_P2
2021/12/14 00:00:43;;;;;;;25.13;17.23;;;;;;;7.81;95.85;102765.41;5056748;28;20067;-77
2021/12/14 00:03:09;;;;;;;27.02;17.63;;;;;;;7.81;95.61;102776.72;5070415;28;20341;-76
2021/12/14 00:05:35;;;;;;;24.45;16.70;;;;;;;7.82;95.94;102778.47;5071597;28;20092;-77
2021/12/14 00:08:02;;;;;;;27.08;17.40;;;;;;;7.81;96.08;102779.31;5071635;28;20332;-77
2021/12/14 00:13:03;;;;;;;23.20;16.08;;;;;;;7.82;95.70;102788.00;5064279;28;20047;-77
2021/12/14 00:15:29;;;;;;;21.73;16.17;;;;;;;7.81;95.73;102792.38;5067747;28;20028;-77
2021/12/14 00:17:57;;;;;;;23.45;17.23;;;;;;;7.80;95.54;102806.25;5065998;28;20343;-77
2021/12/14 00:20:26;;;;;;;25.52;17.35;;;;;;;7.81;95.82;102812.38;5058259;28;20099;-77
2021/12/14 00:25:27;;;;;;;27.75;18.33;;;;;;;7.79;95.61;102783.66;5062061;28;20037;-77
2021/12/14 00:27:54;;;;;;;22.95;17.60;;;;;;;7.79;95.61;102778.44;5068110;28;20028;-77
2021/12/14 00:30:19;;;;;;;25.17;17.33;;;;;;;7.79;95.72;102785.41;5065035;28;20081;-76
2021/12/14 00:32:45;;;;;;;28.50;18.30;;;;;;;7.79;95.83;102794.09;5056710;28;20263;-76
2021/12/14 00:35:12;;;;;;;26.70;18.15;;;;;;;7.81;95.81;102789.75;5040798;28;20070;-77
2021/12/14 00:37:45;;;;;;;26.30;17.05;;;;;;;7.80;96.03;102785.41;5044231;28;20331;-76
2021/12/14 00:40:26;;;;;;;25.65;18.25;;;;;;;7.81;95.70;102792.38;5028757;28;20024;-76
2021/12/14 00:42:52;;;;;;;25.73;17.30;;;;;;;7.80;95.92;102781.91;5028451;28;20327;-77
2021/12/14 00:45:18;;;;;;;26.17;18.52;;;;;;;7.80;95.90;102776.72;5076919;28;20070;-77
2021/12/14 00:47:43;;;;;;;26.73;18.38;;;;;;;7.82;95.97;102783.69;5053191;28;20316;-77
2021/12/14 00:50:09;;;;;;;26.75;17.85;;;;;;;7.82;96.12;102782.78;5071481;28;20120;-77
2021/12/14 00:52:34;;;;;;;27.00;18.50;;;;;;;7.81;95.90;102770.63;5059558;28;20041;-77
2021/12/14 00:55:00;;;;;;;26.25;18.75;;;;;;;7.81;95.82;102765.41;5059724;28;20099;-76
2021/12/14 00:57:25;;;;;;;30.00;18.48;;;;;;;7.81;96.20;102766.28;5058384;28;20032;-77
2021/12/14 00:59:51;;;;;;;27.27;18.98;;;;;;;7.80;96.13;102774.97;5056944;28;20302;-77
2021/12/14 01:02:18;;;;;;;28.17;19.13;;;;;;;7.78;95.72;102776.69;5050714;28;20074;-77
2021/12/14 01:04:47;;;;;;;29.05;19.70;;;;;;;7.78;95.75;102757.56;5077213;28;20107;-77
2021/12/14 01:07:14;;;;;;;32.83;20.67;;;;;;;7.77;95.80;102750.63;5076191;28;20043;-77
2021/12/14 01:09:43;;;;;;;33.65;19.85;;;;;;;7.76;95.87;102735.84;5061257;28;20240;-77
2021/12/14 01:12:15;;;;;;;32.08;20.33;;;;;;;7.77;95.96;102735.00;5072896;28;20037;-77
2021/12/14 01:15:25;;;;;;;30.90;21.17;;;;;;;7.76;95.90;102739.31;5041326;28;20411;-77
2021/12/14 01:18:28;;;;;;;29.65;20.92;;;;;;;7.76;96.02;102731.50;5061114;28;20039;-76
2021/12/14 01:20:59;;;;;;;31.27;21.05;;;;;;;7.75;96.12;102729.75;5062514;28;20099;-76
2021/12/14 01:23:32;;;;;;;28.75;20.42;;;;;;;7.75;95.92;102734.09;5068750;28;20324;-76
2021/12/14 01:26:02;;;;;;;33.47;21.58;;;;;;;7.75;96.13;102732.38;5061016;28;20312;-77
2021/12/14 01:28:27;;;;;;;31.52;21.23;;;;;;;7.75;96.24;102732.38;5051614;28;20044;-77
2021/12/14 01:31:24;;;;;;;33.47;21.55;;;;;;;7.75;96.07;102724.56;5059096;28;20053;-76
2021/12/14 01:33:47;;;;;;;35.85;22.17;;;;;;;7.75;95.98;102734.09;5062949;28;20350;-77
2021/12/14 01:36:40;;;;;;;31.77;22.00;;;;;;;7.72;95.86;102719.31;5050271;28;20028;-77
2021/12/14 01:41:44;;;;;;;32.72;21.90;;;;;;;7.75;95.94;102734.09;5059097;28;20016;-76
2021/12/14 01:44:10;;;;;;;30.95;22.30;;;;;;;7.74;96.11;102745.41;5076672;28;20044;-77
2021/12/14 01:46:43;;;;;;;33.03;22.27;;;;;;;7.73;96.18;102744.56;5063805;28;20279;-76
2021/12/14 01:49:10;;;;;;;33.33;21.90;;;;;;;7.73;96.01;102739.34;5070221;28;20187;-76
2021/12/14 01:51:38;;;;;;;35.30;21.85;;;;;;;7.73;95.96;102726.28;5053712;28;20360;-76
2021/12/14 01:54:04;;;;;;;35.35;23.60;;;;;;;7.74;96.17;102727.16;5073748;28;20342;-76
2021/12/14 01:56:31;;;;;;;32.03;22.42;;;;;;;7.72;96.03;102727.16;5071387;28;20020;-76
2021/12/14 01:58:59;;;;;;;39.80;24.30;;;;;;;7.74;96.12;102727.16;5056290;28;20280;-76
2021/12/14 02:04:33;;;;;;;40.20;23.63;;;;;;;7.72;96.05;102736.72;5065162;28;20302;-76
2021/12/14 02:07:00;;;;;;;35.78;22.77;;;;;;;7.72;96.29;102739.31;5059210;28;20031;-77
2021/12/14 02:09:27;;;;;;;35.63;24.67;;;;;;;7.71;96.15;102735.81;5063583;28;20093;-76
2021/12/14 02:11:56;;;;;;;37.50;23.30;;;;;;;7.72;96.33;102734.09;5074679;28;20036;-76
2021/12/14 02:14:22;;;;;;;34.28;23.83;;;;;;;7.72;96.46;102718.47;5039254;28;20091;-77
2021/12/14 02:16:48;;;;;;;36.88;24.38;;;;;;;7.72;96.47;102728.88;5072529;28;20051;-76
2021/12/14 02:19:14;;;;;;;36.58;25.30;;;;;;;7.71;96.34;102722.78;5064580;28;20100;-76
2021/12/14 02:21:40;;;;;;;34.10;23.17;;;;;;;7.71;96.32;102732.34;5074669;28;20343;-77
2021/12/14 02:24:07;;;;;;;36.60;24.27;;;;;;;7.70;96.41;102734.09;5076085;28;20048;-76
2021/12/14 02:26:35;;;;;;;32.95;24.02;;;;;;;7.69;96.24;102724.53;5050792;28;20498;-76
2021/12/14 02:29:02;;;;;;;39.33;25.13;;;;;;;7.68;96.12;102728.88;5034261;28;20029;-77
2021/12/14 02:31:28;;;;;;;38.53;23.80;;;;;;;7.68;96.21;102715.84;5061406;28;20072;-77
2021/12/14 02:33:54;;;;;;;36.58;24.58;;;;;;;7.68;96.29;102734.09;5064050;28;20043;-77
2021/12/14 02:36:30;;;;;;;37.08;23.70;;;;;;;7.69;96.39;102730.63;5072670;28;20040;-77
2021/12/14 02:39:08;;;;;;;38.47;24.45;;;;;;;7.68;96.10;102723.66;5063821;28;20259;-77
2021/12/14 02:41:41;;;;;;;36.17;24.08;;;;;;;7.68;96.32;102720.19;5076642;28;20071;-76
2021/12/14 02:44:07;;;;;;;39.38;23.88;;;;;;;7.66;96.42;102722.78;5055543;28;20316;-76
2021/12/14 02:46:34;;;;;;;37.60;23.35;;;;;;;7.66;96.10;102717.56;5032372;28;20041;-76
2021/12/14 02:49:03;;;;;;;35.13;23.40;;;;;;;7.65;96.01;102720.19;5061668;28;20040;-76
2021/12/14 02:51:40;;;;;;;36.28;23.70;;;;;;;7.64;96.12;102715.81;5077455;28;20039;-76
2021/12/14 02:54:12;;;;;;;38.35;23.67;;;;;;;7.62;95.94;102718.44;5080049;28;20079;-76
2021/12/14 02:56:38;;;;;;;38.40;23.65;;;;;;;7.63;95.96;102703.66;5077892;28;20036;-76
2021/12/14 02:59:10;;;;;;;39.00;23.92;;;;;;;7.63;96.19;102694.09;5066791;28;20072;-77
2021/12/14 03:01:35;;;;;;;35.20;23.25;;;;;;;7.64;96.20;102694.94;5079633;28;20047;-76
2021/12/14 03:04:02;;;;;;;38.65;24.13;;;;;;;7.62;96.28;102701.91;5075306;28;20328;-76
2021/12/14 03:06:29;;;;;;;35.35;24.05;;;;;;;7.62;96.21;102707.13;5042067;28;20036;-76
2021/12/14 03:09:09;;;;;;;40.13;23.80;;;;;;;7.63;96.06;102704.53;5027624;28;20041;-76
2021/12/14 03:11:36;;;;;;;35.03;23.67;;;;;;;7.61;96.05;102708.88;5070403;28;20041;-76
2021/12/14 03:14:02;;;;;;;36.28;23.02;;;;;;;7.60;96.28;102714.09;5060497;28;20037;-76
2021/12/14 03:16:29;;;;;;;35.17;22.83;;;;;;;7.60;96.16;102716.69;5070456;28;20064;-76
2021/12/14 03:18:54;;;;;;;35.05;22.50;;;;;;;7.60;96.20;102721.91;5062246;28;20090;-77
2021/12/14 03:21:22;;;;;;;34.95;23.35;;;;;;;7.60;96.12;102719.28;5068597;28;20431;-76
2021/12/14 03:23:53;;;;;;;36.10;23.17;;;;;;;7.59;96.10;102723.66;5062489;28;20099;-76
2021/12/14 03:26:21;;;;;;;34.92;23.33;;;;;;;7.59;96.13;102720.19;5044746;28;20054;-76
2021/12/14 03:28:49;;;;;;;33.65;23.25;;;;;;;7.59;96.02;102726.25;5059014;28;20063;-76
2021/12/14 03:31:14;;;;;;;33.07;22.87;;;;;;;7.59;96.17;102723.66;5055977;28;20128;-76
2021/12/14 03:33:45;;;;;;;34.33;23.38;;;;;;;7.61;96.17;102716.69;5076849;28;20294;-76
2021/12/14 03:36:20;;;;;;;31.67;22.88;;;;;;;7.60;96.14;102720.16;5070870;28;20147;-77
2021/12/14 03:39:06;;;;;;;32.65;22.27;;;;;;;7.60;96.17;102737.53;5062761;28;20033;-77
2021/12/14 03:41:58;;;;;;;33.33;22.77;;;;;;;7.60;96.11;102737.53;5064260;28;20040;-77
2021/12/14 03:44:53;;;;;;;34.90;22.38;;;;;;;7.61;96.30;102741.91;5052423;28;20344;-77
2021/12/14 03:47:27;;;;;;;30.38;20.73;;;;;;;7.61;96.13;102745.38;5062371;28;20049;-77
2021/12/14 03:50:08;;;;;;;33.60;21.55;;;;;;;7.61;96.24;102736.69;5063018;28;20075;-77
2021/12/14 03:52:35;;;;;;;35.08;22.08;;;;;;;7.60;96.16;102741.00;5058878;28;20028;-77
2021/12/14 03:55:05;;;;;;;32.92;21.88;;;;;;;7.60;96.31;102742.75;5074676;28;20060;-77
2021/12/14 03:57:30;;;;;;;35.15;21.92;;;;;;;7.61;96.29;102744.53;5076861;28;20095;-77
2021/12/14 03:59:55;;;;;;;33.33;21.83;;;;;;;7.60;96.30;102741.00;5076931;28;20247;-77
2021/12/14 04:02:21;;;;;;;30.77;20.63;;;;;;;7.61;96.28;102736.69;5059660;28;20037;-77
2021/12/14 04:04:53;;;;;;;32.40;20.80;;;;;;;7.60;96.25;102738.41;5060019;28;20986;-77
2021/12/14 04:07:19;;;;;;;28.50;19.60;;;;;;;7.59;96.30;102728.88;5054673;28;20036;-77
2021/12/14 04:09:44;;;;;;;31.42;19.80;;;;;;;7.60;96.06;102721.91;5061800;28;20039;-77
2021/12/14 04:12:13;;;;;;;29.88;19.90;;;;;;;7.60;96.15;102732.34;5063530;28;20048;-77
2021/12/14 04:14:42;;;;;;;;;;;;;;;7.59;96.11;102728.88;5058972;28;20028;-77
2021/12/14 04:17:09;;;;;;;27.30;18.67;;;;;;;7.57;95.96;102730.59;5062181;28;19920;-77
2021/12/14 04:19:36;;;;;;;25.48;17.20;;;;;;;7.56;95.76;102733.19;5058292;28;20202;-77
2021/12/14 04:22:05;;;;;;;26.50;18.48;;;;;;;7.53;95.85;102734.06;5026059;28;20358;-77
2021/12/14 04:24:32;;;;;;;25.88;17.40;;;;;;;7.52;95.75;102736.69;5059352;28;20028;-77
2021/12/14 04:26:59;;;;;;;27.52;17.75;;;;;;;7.53;95.64;102738.41;5061965;28;20096;-77
2021/12/14 04:29:24;;;;;;;26.90;17.75;;;;;;;7.53;95.85;102735.78;5058385;28;20357;-77
2021/12/14 04:31:50;;;;;;;24.33;17.98;;;;;;;7.54;95.68;102740.16;5063185;28;20039;-77
2021/12/14 04:34:17;;;;;;;26.10;17.63;;;;;;;7.54;95.83;102737.53;5064448;28;20032;-77
2021/12/14 04:36:44;;;;;;;25.52;17.75;;;;;;;7.55;95.83;102739.28;5071868;28;20062;-77
2021/12/14 04:39:49;;;;;;;26.35;17.85;;;;;;;7.53;96.04;102739.28;5060804;28;20267;-77
2021/12/14 04:53:56;;;;;;;23.67;16.20;;;;;;;7.54;95.64;102704.50;5071754;28;20503;-77
2021/12/14 04:56:24;;;;;;;23.10;14.93;;;;;;;7.55;95.82;102713.19;5078347;28;20315;-77
2021/12/14 04:58:56;;;;;;;22.15;15.00;;;;;;;7.53;95.92;102718.44;5077058;28;20044;-77
2021/12/14 05:01:22;;;;;;;20.88;15.18;;;;;;;7.53;95.81;102722.75;5057862;28;20032;-77
2021/12/14 05:03:58;;;;;;;22.40;15.32;;;;;;;7.52;95.52;102715.81;5044642;28;20083;-77
2021/12/14 05:06:31;;;;;;;20.40;14.82;;;;;;;7.53;95.56;102710.63;5072488;28;20048;-77
2021/12/14 05:12:12;;;;;;;22.20;15.65;;;;;;;7.50;95.58;102708.00;5052711;28;20274;-77
2021/12/14 05:14:38;;;;;;;21.65;14.68;;;;;;;7.50;95.54;102706.25;5057452;28;20041;-77
2021/12/14 05:17:10;;;;;;;22.42;15.23;;;;;;;7.50;95.60;102703.63;5065158;28;20071;-77
2021/12/14 05:19:37;;;;;;;21.63;14.98;;;;;;;7.49;95.56;102701.91;5064538;28;20071;-77
2021/12/14 05:22:12;;;;;;;18.98;14.40;;;;;;;7.48;95.35;102704.50;5063029;28;20036;-77
2021/12/14 05:24:39;;;;;;;20.58;14.50;;;;;;;7.47;95.19;102705.38;5077116;28;20034;-77
2021/12/14 05:27:05;;;;;;;20.95;14.57;;;;;;;7.47;95.28;102707.97;5057006;28;20060;-77
2021/12/14 05:29:31;;;;;;;22.67;14.73;;;;;;;7.47;95.20;102714.03;5040701;28;20047;-77
2021/12/14 05:31:57;;;;;;;21.02;14.35;;;;;;;7.46;95.22;102714.94;5059420;28;20032;-77
2021/12/14 05:34:23;;;;;;;19.95;14.48;;;;;;;7.47;95.20;102707.97;5073523;28;20039;-77
2021/12/14 05:36:48;;;;;;;20.80;14.38;;;;;;;7.47;95.40;102710.59;5068474;28;20032;-77
2021/12/14 05:44:38;;;;;;;22.30;15.40;;;;;;;7.46;95.36;102711.47;5058320;28;20049;-77
2021/12/14 05:47:10;;;;;;;20.55;14.63;;;;;;;7.46;95.45;102719.28;5064930;28;20050;-77
2021/12/14 05:49:36;;;;;;;27.55;15.70;;;;;;;7.46;95.33;102721.91;5068243;28;20048;-77
2021/12/14 05:52:07;;;;;;;24.58;15.80;;;;;;;7.44;95.43;102719.28;5033543;28;20019;-77
2021/12/14 05:54:32;;;;;;;22.45;15.30;;;;;;;7.44;95.43;102726.19;5062513;28;20343;-77
2021/12/14 05:57:00;;;;;;;22.38;15.32;;;;;;;7.44;95.18;102721.00;5068775;28;20119;-77
2021/12/14 05:59:28;;;;;;;24.45;15.23;;;;;;;7.43;95.26;102733.16;5077577;28;20020;-78
2021/12/14 06:01:54;;;;;;;25.40;15.73;;;;;;;7.44;95.33;102734.91;5080086;28;20357;-77
2021/12/14 06:04:19;;;;;;;24.73;15.65;;;;;;;7.45;95.20;102731.44;5081066;28;20261;-77
2021/12/14 06:06:51;;;;;;;28.52;16.48;;;;;;;7.44;95.29;102728.81;5079716;28;20037;-77
2021/12/14 06:09:29;;;;;;;22.50;15.00;;;;;;;7.44;95.31;102732.31;5064087;28;20024;-77
2021/12/14 06:11:59;;;;;;;21.55;14.80;;;;;;;7.46;95.53;102732.31;5081145;28;20150;-77
2021/12/14 06:14:26;;;;;;;26.45;15.45;;;;;;;7.46;95.38;102734.94;5036836;28;20031;-77
2021/12/14 06:16:55;;;;;;;23.90;16.02;;;;;;;7.46;95.63;102737.53;5061565;28;20036;-77
2021/12/14 06:19:24;;;;;;;26.33;15.48;;;;;;;7.47;95.58;102740.13;5066847;28;20043;-77
2021/12/14 06:21:55;;;;;;;24.58;15.05;;;;;;;7.46;95.38;102740.13;5075387;28;20071;-77
2021/12/14 06:24:22;;;;;;;22.83;15.35;;;;;;;7.46;95.57;102740.13;5076184;28;20040;-77
2021/12/14 06:26:49;;;;;;;24.33;15.27;;;;;;;7.45;95.32;102741.84;5078438;28;20040;-77
2021/12/14 06:29:18;;;;;;;21.65;15.68;;;;;;;7.45;95.51;102744.47;5069617;28;20239;-77
2021/12/14 06:31:43;;;;;;;25.42;16.75;;;;;;;7.45;95.59;102744.47;5077963;28;20205;-77
2021/12/14 06:34:21;;;;;;;24.35;15.60;;;;;;;7.45;95.50;102743.59;5067926;28;20032;-77
2021/12/14 06:36:48;;;;;;;27.42;16.05;;;;;;;7.46;95.42;102758.38;5063209;28;20251;-77
2021/12/14 06:39:14;;;;;;;26.05;16.40;;;;;;;7.45;95.70;102747.06;5081519;28;20032;-77
2021/12/14 06:41:39;;;;;;;25.63;15.98;;;;;;;7.46;95.68;102758.38;5078237;28;20044;-77
2021/12/14 06:44:05;;;;;;;24.75;15.77;;;;;;;7.46;95.64;102753.19;5080407;28;20059;-77
2021/12/14 06:46:32;;;;;;;24.38;15.48;;;;;;;7.46;95.53;102755.78;5077383;28;20048;-77
2021/12/14 06:49:07;;;;;;;28.10;15.10;;;;;;;7.47;95.53;102757.50;5063642;28;20024;-77
2021/12/14 06:51:35;;;;;;;29.23;17.25;;;;;;;7.45;95.61;102767.94;5071374;28;20327;-77
2021/12/14 06:54:09;;;;;;;27.33;16.20;;;;;;;7.46;95.62;102772.28;5073342;28;20095;-78
2021/12/14 06:56:35;;;;;;;26.70;16.90;;;;;;;7.47;95.63;102774.00;5072470;28;20040;-77
2021/12/14 06:59:09;;;;;;;24.42;15.75;;;;;;;7.45;95.67;102773.13;5051834;28;20067;-77
2021/12/14 07:01:37;;;;;;;26.90;16.38;;;;;;;7.46;95.71;102774.91;5079483;28;20417;-77
2021/12/14 07:04:14;;;;;;;31.88;16.90;;;;;;;7.46;95.53;102776.63;5079829;28;20084;-78
2021/12/14 07:06:45;;;;;;;29.77;16.88;;;;;;;7.45;95.64;102775.75;5063169;28;20055;-78
2021/12/14 07:09:20;;;;;;;28.27;16.08;;;;;;;7.45;95.51;102775.75;5078429;28;20321;-78
2021/12/14 07:12:02;;;;;;;32.00;17.13;;;;;;;7.46;95.45;102772.28;5078423;28;20047;-78
2021/12/14 07:14:28;;;;;;;31.10;17.08;;;;;;;7.46;95.63;102776.63;5080514;28;20040;-78
2021/12/14 07:16:57;;;;;;;28.77;17.52;;;;;;;7.44;95.75;102765.31;5079695;28;20036;-78
2021/12/14 07:19:46;;;;;;;28.25;17.58;;;;;;;7.45;95.69;102769.66;5079834;28;20138;-78
2021/12/14 07:22:32;;;;;;;32.50;17.15;;;;;;;7.45;95.60;102772.28;5080689;28;20082;-78
2021/12/14 07:24:59;;;;;;;34.28;17.45;;;;;;;7.44;95.56;102768.81;5075163;28;20131;-78
2021/12/14 07:27:26;;;;;;;33.25;17.60;;;;;;;7.45;95.79;102770.53;5065178;28;20313;-78
2021/12/14 07:29:52;;;;;;;29.50;17.90;;;;;;;7.45;95.82;102767.94;5049392;28;20056;-78
2021/12/14 07:32:57;;;;;;;33.65;18.15;;;;;;;7.45;96.02;102782.69;5052773;28;20798;-78
2021/12/14 07:35:52;;;;;;;33.80;17.38;;;;;;;7.45;95.99;102788.78;5033227;28;20263;-78
2021/12/14 07:38:26;;;;;;;34.83;19.38;;;;;;;7.46;95.85;102795.75;5012437;28;20088;-78
2021/12/14 07:41:08;;;;;;;31.80;18.60;;;;;;;7.46;95.87;102800.97;5043445;28;20044;-78
2021/12/14 07:43:57;;;;;;;35.95;19.52;;;;;;;7.47;95.92;102796.63;5072220;28;20070;-78
2021/12/14 07:46:42;;;;;;;33.45;18.88;;;;;;;7.47;96.02;102797.47;5053238;28;20056;-78
2021/12/14 07:49:08;;;;;;;40.28;19.42;;;;;;;7.47;96.01;102796.63;5055762;28;20219;-78
2021/12/14 07:51:35;;;;;;;35.10;19.05;;;;;;;7.48;96.00;102799.22;5081201;28;20063;-78
2021/12/14 07:54:06;;;;;;;37.30;19.45;;;;;;;7.49;96.20;102800.09;5052140;28;20044;-78
2021/12/14 07:56:44;;;;;;;36.65;18.98;;;;;;;7.48;96.20;102806.19;5072424;28;20036;-78
2021/12/14 07:59:21;;;;;;;32.63;19.40;;;;;;;7.49;96.07;102807.91;5049913;28;20120;-78
2021/12/14 08:01:47;;;;;;;36.30;20.40;;;;;;;7.49;96.47;102811.41;5066228;28;20958;-78
2021/12/14 08:04:13;;;;;;;41.55;19.25;;;;;;;7.50;96.35;102817.50;5079486;28;20025;-78
2021/12/14 08:06:50;;;;;;;34.22;19.35;;;;;;;7.51;96.25;102819.22;5058633;28;20036;-78
2021/12/14 08:09:33;;;;;;;32.38;20.05;;;;;;;7.51;96.61;102819.22;5070456;28;20326;-78
2021/12/14 08:11:59;;;;;;;37.88;20.42;;;;;;;7.51;96.56;102816.59;5068648;28;20036;-78
2021/12/14 08:14:26;;;;;;;37.28;19.05;;;;;;;7.52;96.50;102815.75;5075529;28;20190;-78
2021/12/14 08:17:05;;;;;;;40.92;20.10;;;;;;;7.55;96.62;102825.31;5057911;28;20070;-78
2021/12/14 08:19:33;;;;;;;37.75;19.35;;;;;;;7.56;96.75;102825.31;5060757;28;20040;-78
2021/12/14 08:22:13;;;;;;;33.22;18.98;;;;;;;7.56;96.89;102827.94;5056148;28;20381;-78
2021/12/14 08:24:39;;;;;;;35.30;20.05;;;;;;;7.56;96.81;102825.31;5031531;28;20048;-78
2021/12/14 08:27:05;;;;;;;34.72;19.40;;;;;;;7.55;96.74;102826.22;5050265;28;20275;-78
2021/12/14 08:29:32;;;;;;;37.40;20.48;;;;;;;7.56;96.84;102830.53;5041364;28;20032;-78
2021/12/14 08:32:08;;;;;;;35.58;19.95;;;;;;;7.58;96.84;102830.56;5047022;28;20039;-78
2021/12/14 08:34:37;;;;;;;38.17;19.48;;;;;;;7.57;97.14;102832.28;5062300;28;20051;-78
2021/12/14 08:37:07;;;;;;;35.42;19.80;;;;;;;7.59;97.06;102841.00;5064678;28;20044;-78
2021/12/14 08:39:47;;;;;;;34.05;19.65;;;;;;;7.59;97.05;102842.75;5065109;28;20040;-78
2021/12/14 08:42:17;;;;;;;39.80;19.83;;;;;;;7.60;97.06;102852.28;5065509;28;20036;-78
2021/12/14 08:44:51;;;;;;;38.35;20.63;;;;;;;7.60;97.06;102852.28;5070408;28;20039;-78
2021/12/14 08:47:22;;;;;;;43.35;21.10;;;;;;;7.60;97.33;102850.53;5058340;28;20109;-78
2021/12/14 08:49:48;;;;;;;39.63;20.90;;;;;;;7.60;97.17;102841.84;5045155;28;20039;-78
2021/12/14 08:52:13;;;;;;;40.10;20.50;;;;;;;7.62;97.34;102854.06;5056870;28;20288;-78
2021/12/14 08:54:39;;;;;;;39.38;21.58;;;;;;;7.61;97.03;102851.44;5061756;28;20037;-78
2021/12/14 08:57:16;;;;;;;36.53;19.73;;;;;;;7.61;97.42;102849.69;5064670;28;20219;-78
2021/12/14 08:59:48;;;;;;;37.55;21.00;;;;;;;7.62;97.36;102843.63;5058033;28;20024;-78
2021/12/14 09:02:15;;;;;;;45.75;22.40;;;;;;;7.61;97.36;102847.06;5067285;28;20336;-78
2021/12/14 09:04:44;;;;;;;34.85;20.55;;;;;;;7.61;97.41;102848.81;5064202;28;20266;-79
2021/12/14 09:07:16;;;;;;;38.67;21.52;;;;;;;7.64;97.37;102843.59;5069180;28;20266;-78
2021/12/14 09:09:42;;;;;;;39.22;21.08;;;;;;;7.63;97.58;102853.16;5062352;28;20047;-79
2021/12/14 09:12:16;;;;;;;40.22;22.40;;;;;;;7.63;97.45;102845.34;5072364;28;20263;-79
2021/12/14 09:14:41;;;;;;;35.60;20.65;;;;;;;7.65;97.45;102840.13;5048186;28;20040;-78
2021/12/14 09:17:07;;;;;;;40.17;22.55;;;;;;;7.64;97.78;102841.88;5052380;28;20032;-78
2021/12/14 09:19:42;;;;;;;46.22;22.70;;;;;;;7.63;97.72;102837.53;5073476;28;20055;-78
2021/12/14 09:22:10;;;;;;;44.40;22.05;;;;;;;7.64;97.54;102841.88;5064414;28;20340;-78
2021/12/14 09:24:36;;;;;;;42.80;21.95;;;;;;;7.64;97.61;102841.00;5056872;28;20137;-78
2021/12/14 09:27:05;;;;;;;41.28;21.77;;;;;;;7.65;97.74;102843.59;5034301;28;20077;-78
2021/12/14 09:29:31;;;;;;;43.58;23.27;;;;;;;7.65;97.74;102847.97;5068078;28;20104;-78
2021/12/14 09:31:57;;;;;;;46.78;23.63;;;;;;;7.65;97.90;102851.44;5051431;28;20048;-78
2021/12/14 09:34:24;;;;;;;42.65;22.42;;;;;;;7.67;97.86;102854.06;5067159;28;20040;-78
2021/12/14 09:36:51;;;;;;;40.33;23.00;;;;;;;7.66;97.76;102860.16;5044179;28;20033;-78
2021/12/14 09:39:20;;;;;;;42.03;22.60;;;;;;;7.67;97.76;102862.75;5074644;28;20166;-78
2021/12/14 09:41:50;;;;;;;38.20;21.42;;;;;;;7.67;97.93;102854.91;5058299;28;20346;-78
2021/12/14 09:44:18;;;;;;;40.88;21.92;;;;;;;7.70;97.85;102854.06;5076496;28;20247;-78
2021/12/14 09:46:43;;;;;;;45.67;22.13;;;;;;;7.70;98.03;102854.06;5056190;28;20166;-78
2021/12/14 09:49:09;;;;;;;44.03;22.50;;;;;;;7.71;97.97;102857.53;5070511;28;20270;-78
2021/12/14 09:51:47;;;;;;;44.55;22.35;;;;;;;7.71;98.13;102855.78;5076477;28;20099;-78
2021/12/14 09:54:15;;;;;;;40.88;23.13;;;;;;;7.72;98.09;102854.94;5068021;28;20055;-78
2021/12/14 09:56:48;;;;;;;38.58;22.00;;;;;;;7.73;98.01;102858.41;5060678;28;20240;-78
2021/12/14 09:59:13;;;;;;;48.92;22.92;;;;;;;7.75;98.10;102861.91;5046957;28;20213;-78
2021/12/14 10:01:48;;;;;;;47.13;23.50;;;;;;;7.74;98.08;102852.34;5068062;28;20039;-78
2021/12/14 10:04:19;;;;;;;41.03;22.48;;;;;;;7.74;98.09;102845.38;5064641;28;20037;-78
2021/12/14 10:06:44;;;;;;;44.72;22.98;;;;;;;7.74;98.18;102842.78;5068785;28;20267;-78
2021/12/14 10:09:13;;;;;;;44.50;22.65;;;;;;;7.76;98.26;102842.78;5043782;28;20037;-78
2021/12/14 10:12:16;;;;;;;46.42;24.17;;;;;;;7.77;98.08;102847.16;5066824;28;20036;-78
2021/12/14 10:14:37;;;;;;;47.13;23.15;;;;;;;7.77;98.23;102852.38;5067127;28;20462;-78
2021/12/14 10:17:07;;;;;;;43.80;23.83;;;;;;;7.78;98.24;102849.72;5068964;28;20040;-78
2021/12/14 10:19:33;;;;;;;48.55;24.00;;;;;;;7.78;98.19;102849.72;5057489;28;20059;-78
2021/12/14 10:22:01;;;;;;;44.88;22.85;;;;;;;7.78;98.09;102849.72;5061959;28;20565;-78
2021/12/14 10:24:27;;;;;;;41.65;23.25;;;;;;;7.81;98.42;102851.50;5042061;28;20044;-78
2021/12/14 10:26:55;;;;;;;48.15;22.92;;;;;;;7.81;98.30;102851.50;5044579;28;20224;-78
2021/12/14 10:29:23;;;;;;;46.70;22.75;;;;;;;7.82;98.42;102854.13;5073157;28;20396;-78
2021/12/14 10:31:51;;;;;;;48.42;22.00;;;;;;;7.84;98.25;102854.09;5041945;28;20297;-78
2021/12/14 10:34:23;;;;;;;57.00;23.37;;;;;;;7.85;98.33;102858.47;5039631;28;20312;-78
2021/12/14 10:36:54;;;;;;;42.03;22.40;;;;;;;7.85;98.35;102859.31;5076766;28;20028;-78
2021/12/14 10:44:39;;;;;;;41.42;21.55;;;;;;;7.89;98.46;102860.19;5061566;28;20048;-78
2021/12/14 10:47:05;;;;;;;41.38;21.95;;;;;;;7.90;98.52;102856.75;5076730;28;20040;-79
2021/12/14 10:49:30;;;;;;;49.58;22.08;;;;;;;7.91;98.51;102853.25;5073720;28;20356;-78
2021/12/14 10:51:59;;;;;;;47.97;22.33;;;;;;;7.92;98.63;102860.22;5055179;28;20090;-78
2021/12/14 10:54:24;;;;;;;42.88;22.13;;;;;;;7.92;98.73;102856.75;5069658;28;20024;-78
2021/12/14 10:56:53;;;;;;;35.33;21.42;;;;;;;7.93;98.45;102858.47;5066856;28;20041;-78
2021/12/14 10:59:21;;;;;;;41.28;22.58;;;;;;;7.94;98.70;102849.78;5067545;28;20306;-78
2021/12/14 11:01:50;;;;;;;45.85;22.48;;;;;;;7.95;98.74;102846.31;5060995;28;20551;-78
2021/12/14 11:04:23;;;;;;;42.90;21.95;;;;;;;7.96;98.76;102846.31;5075029;28;20059;-78
2021/12/14 11:06:49;;;;;;;40.72;21.80;;;;;;;7.98;98.85;102852.41;5054005;28;20033;-78
2021/12/14 11:09:42;;;;;;;44.55;22.60;;;;;;;7.99;99.06;102843.72;5052058;28;20333;-78
2021/12/14 11:12:28;;;;;;;44.15;23.05;;;;;;;8.00;98.89;102847.19;5067937;28;20032;-78
2021/12/14 11:15:03;;;;;;;41.28;21.25;;;;;;;8.00;98.88;102840.22;5076770;28;20033;-78
2021/12/14 11:20:33;;;;;;;40.17;22.23;;;;;;;8.03;99.25;102836.75;5058653;28;20091;-78
2021/12/14 11:22:58;;;;;;;43.35;22.42;;;;;;;8.03;99.39;102848.06;5060433;28;20194;-78
2021/12/14 11:25:26;;;;;;;43.40;23.05;;;;;;;8.03;99.44;102836.75;5066690;28;20040;-78
2021/12/14 11:28:07;;;;;;;41.97;21.58;;;;;;;8.03;99.41;102847.19;5060794;28;20060;-78
2021/12/14 11:30:50;;;;;;;43.13;22.60;;;;;;;8.04;99.47;102844.59;5068021;28;20343;-78
2021/12/14 11:33:21;;;;;;;44.97;22.70;;;;;;;8.05;99.47;102842.84;5058331;28;20327;-78
2021/12/14 11:35:54;;;;;;;45.05;22.60;;;;;;;8.04;99.59;102839.38;5060819;28;20470;-78
2021/12/14 11:39:00;;;;;;;46.78;22.45;;;;;;;8.06;99.73;102839.38;5049761;28;20029;-78
2021/12/14 11:41:50;;;;;;;38.05;20.20;;;;;;;8.06;99.53;102831.56;5042871;28;20083;-78
2021/12/14 11:44:25;;;;;;;39.42;20.38;;;;;;;8.06;99.71;102831.56;5069070;28;20146;-78
2021/12/14 11:46:56;;;;;;;41.60;20.08;;;;;;;8.06;99.72;102837.66;5064439;28;20040;-78
2021/12/14 11:49:24;;;;;;;34.13;19.33;;;;;;;8.07;99.59;102835.91;5070580;28;20075;-78
2021/12/14 11:51:51;;;;;;;36.38;19.70;;;;;;;8.07;99.56;102839.38;5075190;28;20048;-78
2021/12/14 11:54:18;;;;;;;38.42;20.60;;;;;;;8.08;99.87;102835.03;5071074;28;20040;-78
2021/12/14 11:56:43;;;;;;;40.15;19.98;;;;;;;8.10;99.89;102837.66;5062869;28;20351;-78
2021/12/14 11:59:09;;;;;;;36.75;20.05;;;;;;;8.10;99.91;102837.66;5064399;28;20037;-78
2021/12/14 12:01:46;;;;;;;39.90;20.85;;;;;;;8.11;99.85;102829.81;5058636;28;20051;-78
2021/12/14 12:04:19;;;;;;;36.50;20.00;;;;;;;8.12;99.93;102834.16;5072253;28;20374;-78
2021/12/14 12:09:29;;;;;;;35.75;19.65;;;;;;;8.14;100.00;102832.44;5047812;28;20092;-78
2021/12/14 12:12:20;;;;;;;44.55;19.52;;;;;;;8.15;100.00;102835.91;5070588;28;20041;-78
2021/12/14 12:14:53;;;;;;;43.03;19.30;;;;;;;8.15;99.94;102834.19;5055467;28;20359;-78